Abington, Massachusetts
Current Conditions -  °F | °C
As of 1:53 PM on Wednesday 17 Dec 2014 (Local Time) from KOWD Reporting Station
Overcast Overcast  
Wind Chill: 44°   Ceiling: 1900
Heat Index: 47°   Visibility: 10mi
Dew Point: 43°   Wind: 7mph
Humidity: 86%   Direction: 290°WNW
Pressure: 29.69"   Gusts: NA
Location:  42.12°N, 70.96°W
Report Text: KOWD 171853Z 29006KT 10SM SCT012 OVC019 08/06 A2969 RMK AO2 SLP053 T00830061
Loading
Personal Weather Stations






























Interactive Weather Map New forecast layout! Learn more

10-Day Weather Forecast

Advertisements
Track Severe Weather on mobile